sensor_id;sensor_type;location;lat;lon;timestamp;P1;durP1;ratioP1;P2;durP2;ratioP2
2289;SDS011;1153;47.986;7.898;2023-03-01T00:02:02;19.57;;;13.10;;
2289;SDS011;1153;47.986;7.898;2023-03-01T00:04:29;21.53;;;12.30;;
2289;SDS011;1153;47.986;7.898;2023-03-01T00:06:54;22.37;;;13.17;;
2289;SDS011;1153;47.986;7.898;2023-03-01T00:09:19;22.00;;;11.37;;
2289;SDS011;1153;47.986;7.898;2023-03-01T00:11:45;15.63;;;10.60;;
2289;SDS011;1153;47.986;7.898;2023-03-01T00:14:10;24.10;;;13.63;;
2289;SDS011;1153;47.986;7.898;2023-03-01T00:16:37;17.33;;;11.50;;
2289;SDS011;1153;47.986;7.898;2023-03-01T00:19:03;20.10;;;11.70;;
2289;SDS011;1153;47.986;7.898;2023-03-01T00:21:29;16.43;;;11.33;;
2289;SDS011;1153;47.986;7.898;2023-03-01T00:23:54;19.10;;;11.30;;
2289;SDS011;1153;47.986;7.898;2023-03-01T00:26:21;20.00;;;11.33;;
2289;SDS011;1153;47.986;7.898;2023-03-01T00:28:46;23.70;;;12.00;;
2289;SDS011;1153;47.986;7.898;2023-03-01T00:31:13;21.20;;;11.97;;
2289;SDS011;1153;47.986;7.898;2023-03-01T00:33:39;21.30;;;13.40;;
2289;SDS011;1153;47.986;7.898;2023-03-01T00:36:04;22.27;;;12.10;;
2289;SDS011;1153;47.986;7.898;2023-03-01T00:38:30;19.97;;;10.93;;
2289;SDS011;1153;47.986;7.898;2023-03-01T00:40:55;21.30;;;11.50;;
2289;SDS011;1153;47.986;7.898;2023-03-01T00:43:21;23.63;;;11.80;;
2289;SDS011;1153;47.986;7.898;2023-03-01T00:45:46;19.73;;;12.43;;
2289;SDS011;1153;47.986;7.898;2023-03-01T00:48:12;18.83;;;11.73;;
2289;SDS011;1153;47.986;7.898;2023-03-01T00:50:37;18.47;;;11.20;;
2289;SDS011;1153;47.986;7.898;2023-03-01T00:53:02;19.30;;;11.70;;
2289;SDS011;1153;47.986;7.898;2023-03-01T00:55:28;19.13;;;11.30;;
2289;SDS011;1153;47.986;7.898;2023-03-01T00:57:53;23.13;;;12.83;;
2289;SDS011;1153;47.986;7.898;2023-03-01T01:00:18;18.97;;;11.80;;
2289;SDS011;1153;47.986;7.898;2023-03-01T01:02:44;20.63;;;12.30;;
2289;SDS011;1153;47.986;7.898;2023-03-01T01:05:09;34.73;;;13.07;;
2289;SDS011;1153;47.986;7.898;2023-03-01T01:07:34;26.07;;;12.90;;
2289;SDS011;1153;47.986;7.898;2023-03-01T01:09:59;20.60;;;12.50;;
2289;SDS011;1153;47.986;7.898;2023-03-01T01:12:25;19.83;;;12.27;;
2289;SDS011;1153;47.986;7.898;2023-03-01T01:14:50;26.17;;;13.03;;
2289;SDS011;1153;47.986;7.898;2023-03-01T01:17:15;23.23;;;13.03;;
2289;SDS011;1153;47.986;7.898;2023-03-01T01:19:40;23.63;;;12.07;;
2289;SDS011;1153;47.986;7.898;2023-03-01T01:22:06;22.10;;;13.10;;
2289;SDS011;1153;47.986;7.898;2023-03-01T01:24:31;16.60;;;10.47;;
2289;SDS011;1153;47.986;7.898;2023-03-01T01:26:56;21.37;;;11.80;;
2289;SDS011;1153;47.986;7.898;2023-03-01T01:29:22;29.37;;;14.47;;
2289;SDS011;1153;47.986;7.898;2023-03-01T01:31:47;20.93;;;11.00;;
2289;SDS011;1153;47.986;7.898;2023-03-01T01:34:16;14.90;;;10.40;;
2289;SDS011;1153;47.986;7.898;2023-03-01T01:36:42;23.57;;;13.00;;
2289;SDS011;1153;47.986;7.898;2023-03-01T01:39:07;22.80;;;11.57;;
2289;SDS011;1153;47.986;7.898;2023-03-01T01:41:38;17.47;;;12.30;;
2289;SDS011;1153;47.986;7.898;2023-03-01T01:44:23;18.60;;;11.97;;
2289;SDS011;1153;47.986;7.898;2023-03-01T01:46:50;19.77;;;11.60;;
2289;SDS011;1153;47.986;7.898;2023-03-01T01:49:19;25.03;;;13.23;;
2289;SDS011;1153;47.986;7.898;2023-03-01T01:51:47;15.43;;;9.43;;
2289;SDS011;1153;47.986;7.898;2023-03-01T01:54:15;17.00;;;11.30;;
2289;SDS011;1153;47.986;7.898;2023-03-01T01:56:42;22.60;;;12.53;;
2289;SDS011;1153;47.986;7.898;2023-03-01T01:59:09;18.50;;;11.67;;
2289;SDS011;1153;47.986;7.898;2023-03-01T02:01:34;18.33;;;11.43;;
2289;SDS011;1153;47.986;7.898;2023-03-01T02:03:59;20.77;;;11.23;;
2289;SDS011;1153;47.986;7.898;2023-03-01T02:06:28;25.70;;;12.57;;
2289;SDS011;1153;47.986;7.898;2023-03-01T02:08:59;23.57;;;13.17;;
2289;SDS011;1153;47.986;7.898;2023-03-01T02:11:25;23.60;;;13.10;;
2289;SDS011;1153;47.986;7.898;2023-03-01T02:13:52;20.57;;;12.50;;
2289;SDS011;1153;47.986;7.898;2023-03-01T02:16:18;17.30;;;11.10;;
2289;SDS011;1153;47.986;7.898;2023-03-01T02:18:43;19.77;;;11.27;;
2289;SDS011;1153;47.986;7.898;2023-03-01T02:23:34;21.77;;;13.23;;
2289;SDS011;1153;47.986;7.898;2023-03-01T02:26:05;21.57;;;12.13;;
2289;SDS011;1153;47.986;7.898;2023-03-01T02:28:36;20.90;;;12.40;;
2289;SDS011;1153;47.986;7.898;2023-03-01T02:31:02;21.63;;;12.30;;
2289;SDS011;1153;47.986;7.898;2023-03-01T02:33:46;22.77;;;12.37;;
2289;SDS011;1153;47.986;7.898;2023-03-01T02:36:20;26.03;;;14.13;;
2289;SDS011;1153;47.986;7.898;2023-03-01T02:38:47;21.67;;;13.00;;
2289;SDS011;1153;47.986;7.898;2023-03-01T02:41:13;19.43;;;12.00;;
2289;SDS011;1153;47.986;7.898;2023-03-01T02:43:39;21.07;;;13.00;;
2289;SDS011;1153;47.986;7.898;2023-03-01T02:46:06;23.57;;;12.03;;
2289;SDS011;1153;47.986;7.898;2023-03-01T02:48:46;20.77;;;11.73;;
2289;SDS011;1153;47.986;7.898;2023-03-01T02:53:41;14.90;;;10.10;;
2289;SDS011;1153;47.986;7.898;2023-03-01T02:56:12;17.97;;;11.60;;
2289;SDS011;1153;47.986;7.898;2023-03-01T02:58:39;17.30;;;11.17;;
2289;SDS011;1153;47.986;7.898;2023-03-01T03:01:10;16.93;;;10.07;;
2289;SDS011;1153;47.986;7.898;2023-03-01T03:03:35;20.93;;;11.80;;
2289;SDS011;1153;47.986;7.898;2023-03-01T03:06:00;16.43;;;11.07;;
2289;SDS011;1153;47.986;7.898;2023-03-01T03:08:26;26.13;;;11.03;;
2289;SDS011;1153;47.986;7.898;2023-03-01T03:10:51;21.63;;;11.97;;
2289;SDS011;1153;47.986;7.898;2023-03-01T03:13:16;22.33;;;11.40;;
2289;SDS011;1153;47.986;7.898;2023-03-01T03:15:42;20.70;;;11.40;;
2289;SDS011;1153;47.986;7.898;2023-03-01T03:18:12;25.23;;;12.50;;
2289;SDS011;1153;47.986;7.898;2023-03-01T03:20:38;19.67;;;10.20;;
2289;SDS011;1153;47.986;7.898;2023-03-01T03:23:04;15.63;;;10.60;;
2289;SDS011;1153;47.986;7.898;2023-03-01T03:25:29;19.60;;;11.23;;
2289;SDS011;1153;47.986;7.898;2023-03-01T03:27:54;17.10;;;11.13;;
2289;SDS011;1153;47.986;7.898;2023-03-01T03:30:21;23.40;;;11.67;;
2289;SDS011;1153;47.986;7.898;2023-03-01T03:32:47;30.60;;;14.10;;
2289;SDS011;1153;47.986;7.898;2023-03-01T03:35:22;15.93;;;11.13;;
2289;SDS011;1153;47.986;7.898;2023-03-01T03:37:47;23.90;;;11.67;;
2289;SDS011;1153;47.986;7.898;2023-03-01T03:40:34;19.60;;;11.13;;
2289;SDS011;1153;47.986;7.898;2023-03-01T03:43:00;24.57;;;12.50;;
2289;SDS011;1153;47.986;7.898;2023-03-01T03:45:25;21.10;;;11.80;;
2289;SDS011;1153;47.986;7.898;2023-03-01T03:47:51;16.73;;;11.07;;
2289;SDS011;1153;47.986;7.898;2023-03-01T03:50:16;17.70;;;10.23;;
2289;SDS011;1153;47.986;7.898;2023-03-01T03:52:42;20.03;;;10.83;;
2289;SDS011;1153;47.986;7.898;2023-03-01T03:55:08;22.57;;;11.50;;
2289;SDS011;1153;47.986;7.898;2023-03-01T03:57:41;26.67;;;12.00;;
2289;SDS011;1153;47.986;7.898;2023-03-01T04:00:09;19.27;;;11.33;;
2289;SDS011;1153;47.986;7.898;2023-03-01T04:02:39;19.93;;;11.90;;
2289;SDS011;1153;47.986;7.898;2023-03-01T04:05:05;18.60;;;11.77;;
2289;SDS011;1153;47.986;7.898;2023-03-01T04:07:30;22.83;;;12.33;;
2289;SDS011;1153;47.986;7.898;2023-03-01T04:09:55;20.83;;;10.97;;
2289;SDS011;1153;47.986;7.898;2023-03-01T04:12:20;21.80;;;10.87;;
2289;SDS011;1153;47.986;7.898;2023-03-01T04:14:47;18.97;;;12.07;;
2289;SDS011;1153;47.986;7.898;2023-03-01T04:17:13;21.10;;;11.97;;
2289;SDS011;1153;47.986;7.898;2023-03-01T04:19:38;18.27;;;10.70;;
2289;SDS011;1153;47.986;7.898;2023-03-01T04:22:03;18.43;;;12.77;;
2289;SDS011;1153;47.986;7.898;2023-03-01T04:24:34;22.93;;;12.03;;
2289;SDS011;1153;47.986;7.898;2023-03-01T04:26:59;20.00;;;11.43;;
2289;SDS011;1153;47.986;7.898;2023-03-01T04:29:24;21.97;;;12.17;;
2289;SDS011;1153;47.986;7.898;2023-03-01T04:31:49;25.23;;;12.97;;
2289;SDS011;1153;47.986;7.898;2023-03-01T04:34:14;25.33;;;11.97;;
2289;SDS011;1153;47.986;7.898;2023-03-01T04:36:40;23.17;;;12.33;;
2289;SDS011;1153;47.986;7.898;2023-03-01T04:39:05;25.30;;;13.33;;
2289;SDS011;1153;47.986;7.898;2023-03-01T04:41:37;18.60;;;12.30;;
2289;SDS011;1153;47.986;7.898;2023-03-01T04:44:03;26.47;;;12.93;;
2289;SDS011;1153;47.986;7.898;2023-03-01T04:46:29;20.80;;;13.23;;
2289;SDS011;1153;47.986;7.898;2023-03-01T04:48:54;23.67;;;12.87;;
2289;SDS011;1153;47.986;7.898;2023-03-01T04:51:19;21.53;;;11.30;;
2289;SDS011;1153;47.986;7.898;2023-03-01T04:53:45;21.90;;;11.87;;
2289;SDS011;1153;47.986;7.898;2023-03-01T04:56:10;27.03;;;13.70;;
2289;SDS011;1153;47.986;7.898;2023-03-01T04:58:35;27.57;;;14.50;;
2289;SDS011;1153;47.986;7.898;2023-03-01T05:01:01;18.80;;;11.20;;
2289;SDS011;1153;47.986;7.898;2023-03-01T05:03:26;20.17;;;12.27;;
2289;SDS011;1153;47.986;7.898;2023-03-01T05:05:52;22.07;;;13.33;;
2289;SDS011;1153;47.986;7.898;2023-03-01T05:08:17;25.17;;;14.07;;
2289;SDS011;1153;47.986;7.898;2023-03-01T05:10:47;21.47;;;13.30;;
2289;SDS011;1153;47.986;7.898;2023-03-01T05:13:13;23.90;;;13.87;;
2289;SDS011;1153;47.986;7.898;2023-03-01T05:15:40;25.30;;;13.47;;
2289;SDS011;1153;47.986;7.898;2023-03-01T05:18:05;26.37;;;13.83;;
2289;SDS011;1153;47.986;7.898;2023-03-01T05:20:36;23.97;;;13.60;;
2289;SDS011;1153;47.986;7.898;2023-03-01T05:23:01;17.67;;;11.63;;
2289;SDS011;1153;47.986;7.898;2023-03-01T05:25:30;25.93;;;13.73;;
2289;SDS011;1153;47.986;7.898;2023-03-01T05:27:57;30.87;;;13.83;;
2289;SDS011;1153;47.986;7.898;2023-03-01T05:30:23;23.97;;;12.60;;
2289;SDS011;1153;47.986;7.898;2023-03-01T05:32:49;26.57;;;14.13;;
2289;SDS011;1153;47.986;7.898;2023-03-01T05:35:15;24.90;;;11.87;;
2289;SDS011;1153;47.986;7.898;2023-03-01T05:37:45;30.97;;;14.50;;
2289;SDS011;1153;47.986;7.898;2023-03-01T05:40:11;24.50;;;13.50;;
2289;SDS011;1153;47.986;7.898;2023-03-01T05:42:41;19.30;;;12.50;;
2289;SDS011;1153;47.986;7.898;2023-03-01T05:45:06;26.00;;;14.97;;
2289;SDS011;1153;47.986;7.898;2023-03-01T05:47:34;24.87;;;13.07;;
2289;SDS011;1153;47.986;7.898;2023-03-01T05:50:00;27.93;;;12.90;;
2289;SDS011;1153;47.986;7.898;2023-03-01T05:52:25;25.17;;;14.27;;
2289;SDS011;1153;47.986;7.898;2023-03-01T05:54:50;26.57;;;12.97;;
2289;SDS011;1153;47.986;7.898;2023-03-01T05:57:16;25.57;;;12.40;;
2289;SDS011;1153;47.986;7.898;2023-03-01T05:59:41;26.73;;;13.50;;
2289;SDS011;1153;47.986;7.898;2023-03-01T06:02:06;30.60;;;13.83;;
2289;SDS011;1153;47.986;7.898;2023-03-01T06:04:31;31.83;;;13.10;;
2289;SDS011;1153;47.986;7.898;2023-03-01T06:06:56;32.13;;;14.17;;
2289;SDS011;1153;47.986;7.898;2023-03-01T06:09:21;30.60;;;13.63;;
2289;SDS011;1153;47.986;7.898;2023-03-01T06:11:47;25.37;;;13.00;;
2289;SDS011;1153;47.986;7.898;2023-03-01T06:14:12;35.63;;;15.07;;
2289;SDS011;1153;47.986;7.898;2023-03-01T06:16:39;31.97;;;15.47;;
2289;SDS011;1153;47.986;7.898;2023-03-01T06:19:04;28.40;;;13.73;;
2289;SDS011;1153;47.986;7.898;2023-03-01T06:21:30;28.83;;;15.23;;
2289;SDS011;1153;47.986;7.898;2023-03-01T06:23:55;26.73;;;13.33;;
2289;SDS011;1153;47.986;7.898;2023-03-01T06:26:20;22.07;;;13.30;;
2289;SDS011;1153;47.986;7.898;2023-03-01T06:28:45;27.17;;;14.33;;
2289;SDS011;1153;47.986;7.898;2023-03-01T06:31:11;27.17;;;14.00;;
2289;SDS011;1153;47.986;7.898;2023-03-01T06:33:36;23.70;;;13.97;;
2289;SDS011;1153;47.986;7.898;2023-03-01T06:36:03;28.10;;;13.30;;
2289;SDS011;1153;47.986;7.898;2023-03-01T06:38:28;21.80;;;13.97;;
2289;SDS011;1153;47.986;7.898;2023-03-01T06:40:54;28.80;;;14.13;;
2289;SDS011;1153;47.986;7.898;2023-03-01T06:43:20;25.93;;;14.87;;
2289;SDS011;1153;47.986;7.898;2023-03-01T06:45:45;27.37;;;13.90;;
2289;SDS011;1153;47.986;7.898;2023-03-01T06:48:10;24.37;;;13.97;;
2289;SDS011;1153;47.986;7.898;2023-03-01T06:50:36;23.60;;;14.53;;
2289;SDS011;1153;47.986;7.898;2023-03-01T06:53:02;31.90;;;15.63;;
2289;SDS011;1153;47.986;7.898;2023-03-01T06:55:27;23.70;;;14.70;;
2289;SDS011;1153;47.986;7.898;2023-03-01T06:57:56;25.50;;;14.43;;
2289;SDS011;1153;47.986;7.898;2023-03-01T07:00:22;29.50;;;14.10;;
2289;SDS011;1153;47.986;7.898;2023-03-01T07:02:47;23.07;;;13.37;;
2289;SDS011;1153;47.986;7.898;2023-03-01T07:05:12;22.73;;;14.00;;
2289;SDS011;1153;47.986;7.898;2023-03-01T07:07:37;25.97;;;14.00;;
2289;SDS011;1153;47.986;7.898;2023-03-01T07:10:03;23.70;;;13.10;;
2289;SDS011;1153;47.986;7.898;2023-03-01T07:12:28;25.77;;;13.60;;
2289;SDS011;1153;47.986;7.898;2023-03-01T07:14:53;34.27;;;14.87;;
2289;SDS011;1153;47.986;7.898;2023-03-01T07:17:18;28.60;;;14.87;;
2289;SDS011;1153;47.986;7.898;2023-03-01T07:19:44;27.70;;;15.57;;
2289;SDS011;1153;47.986;7.898;2023-03-01T07:22:09;35.30;;;15.50;;
2289;SDS011;1153;47.986;7.898;2023-03-01T07:24:35;28.83;;;13.43;;
2289;SDS011;1153;47.986;7.898;2023-03-01T07:27:00;25.83;;;14.30;;
2289;SDS011;1153;47.986;7.898;2023-03-01T07:29:25;34.20;;;16.43;;
2289;SDS011;1153;47.986;7.898;2023-03-01T07:31:50;28.67;;;15.20;;
2289;SDS011;1153;47.986;7.898;2023-03-01T07:34:16;24.53;;;13.23;;
2289;SDS011;1153;47.986;7.898;2023-03-01T07:36:41;32.37;;;15.33;;
2289;SDS011;1153;47.986;7.898;2023-03-01T07:39:08;29.70;;;16.43;;
2289;SDS011;1153;47.986;7.898;2023-03-01T07:41:33;23.63;;;12.77;;
2289;SDS011;1153;47.986;7.898;2023-03-01T07:43:58;25.73;;;14.17;;
2289;SDS011;1153;47.986;7.898;2023-03-01T07:46:24;30.13;;;14.90;;
2289;SDS011;1153;47.986;7.898;2023-03-01T07:48:49;25.40;;;14.70;;
2289;SDS011;1153;47.986;7.898;2023-03-01T07:51:14;25.00;;;14.07;;
2289;SDS011;1153;47.986;7.898;2023-03-01T07:53:39;28.33;;;15.23;;
2289;SDS011;1153;47.986;7.898;2023-03-01T07:56:09;25.30;;;15.20;;
2289;SDS011;1153;47.986;7.898;2023-03-01T07:58:34;21.67;;;13.67;;
2289;SDS011;1153;47.986;7.898;2023-03-01T08:01:01;31.70;;;16.40;;
2289;SDS011;1153;47.986;7.898;2023-03-01T08:03:26;35.23;;;14.50;;
2289;SDS011;1153;47.986;7.898;2023-03-01T08:05:51;23.83;;;14.73;;
2289;SDS011;1153;47.986;7.898;2023-03-01T08:08:17;28.07;;;14.60;;
2289;SDS011;1153;47.986;7.898;2023-03-01T08:10:42;27.83;;;14.60;;
2289;SDS011;1153;47.986;7.898;2023-03-01T08:13:07;30.97;;;15.20;;
2289;SDS011;1153;47.986;7.898;2023-03-01T08:15:32;31.53;;;15.67;;
2289;SDS011;1153;47.986;7.898;2023-03-01T08:17:57;34.90;;;13.77;;
2289;SDS011;1153;47.986;7.898;2023-03-01T08:20:22;27.50;;;14.70;;
2289;SDS011;1153;47.986;7.898;2023-03-01T08:22:48;29.03;;;13.67;;
2289;SDS011;1153;47.986;7.898;2023-03-01T08:25:13;35.40;;;15.17;;
2289;SDS011;1153;47.986;7.898;2023-03-01T08:27:38;28.93;;;15.60;;
2289;SDS011;1153;47.986;7.898;2023-03-01T08:30:04;31.10;;;16.07;;
2289;SDS011;1153;47.986;7.898;2023-03-01T08:32:29;28.43;;;15.13;;
2289;SDS011;1153;47.986;7.898;2023-03-01T08:34:59;34.17;;;16.20;;
2289;SDS011;1153;47.986;7.898;2023-03-01T08:37:24;28.67;;;14.50;;
2289;SDS011;1153;47.986;7.898;2023-03-01T08:39:50;30.40;;;14.17;;
2289;SDS011;1153;47.986;7.898;2023-03-01T08:42:15;32.33;;;14.97;;
2289;SDS011;1153;47.986;7.898;2023-03-01T08:44:40;28.47;;;15.47;;
2289;SDS011;1153;47.986;7.898;2023-03-01T08:47:05;27.77;;;14.00;;
2289;SDS011;1153;47.986;7.898;2023-03-01T08:49:30;26.80;;;15.20;;
2289;SDS011;1153;47.986;7.898;2023-03-01T08:51:57;36.00;;;15.80;;
2289;SDS011;1153;47.986;7.898;2023-03-01T08:54:22;26.00;;;14.40;;
2289;SDS011;1153;47.986;7.898;2023-03-01T08:56:48;32.77;;;15.27;;
2289;SDS011;1153;47.986;7.898;2023-03-01T08:59:14;31.60;;;15.33;;
2289;SDS011;1153;47.986;7.898;2023-03-01T09:01:39;32.73;;;16.73;;
2289;SDS011;1153;47.986;7.898;2023-03-01T09:04:05;30.47;;;16.53;;
2289;SDS011;1153;47.986;7.898;2023-03-01T09:06:31;30.77;;;16.37;;
2289;SDS011;1153;47.986;7.898;2023-03-01T09:08:58;36.27;;;17.27;;
2289;SDS011;1153;47.986;7.898;2023-03-01T09:11:23;26.03;;;14.20;;
2289;SDS011;1153;47.986;7.898;2023-03-01T09:13:48;31.53;;;15.20;;
2289;SDS011;1153;47.986;7.898;2023-03-01T09:16:15;32.00;;;16.53;;
2289;SDS011;1153;47.986;7.898;2023-03-01T09:18:41;28.90;;;15.57;;
2289;SDS011;1153;47.986;7.898;2023-03-01T09:21:08;26.30;;;15.73;;
2289;SDS011;1153;47.986;7.898;2023-03-01T09:23:38;27.10;;;14.70;;
2289;SDS011;1153;47.986;7.898;2023-03-01T09:26:04;29.43;;;15.53;;
2289;SDS011;1153;47.986;7.898;2023-03-01T09:28:30;32.53;;;15.87;;
2289;SDS011;1153;47.986;7.898;2023-03-01T09:30:58;23.40;;;13.40;;
2289;SDS011;1153;47.986;7.898;2023-03-01T09:33:24;27.00;;;15.80;;
2289;SDS011;1153;47.986;7.898;2023-03-01T09:35:49;27.90;;;15.10;;
2289;SDS011;1153;47.986;7.898;2023-03-01T09:38:14;29.10;;;15.33;;
2289;SDS011;1153;47.986;7.898;2023-03-01T09:40:43;28.17;;;15.03;;
2289;SDS011;1153;47.986;7.898;2023-03-01T09:45:51;28.90;;;14.63;;
2289;SDS011;1153;47.986;7.898;2023-03-01T09:48:18;29.07;;;15.33;;
2289;SDS011;1153;47.986;7.898;2023-03-01T09:50:43;33.10;;;15.87;;
2289;SDS011;1153;47.986;7.898;2023-03-01T09:53:15;31.90;;;16.50;;
2289;SDS011;1153;47.986;7.898;2023-03-01T09:58:29;37.10;;;23.07;;
2289;SDS011;1153;47.986;7.898;2023-03-01T10:00:56;37.50;;;19.53;;
2289;SDS011;1153;47.986;7.898;2023-03-01T10:03:39;32.07;;;15.87;;
2289;SDS011;1153;47.986;7.898;2023-03-01T10:06:23;19.27;;;13.20;;
2289;SDS011;1153;47.986;7.898;2023-03-01T10:11:39;27.13;;;14.17;;
2289;SDS011;1153;47.986;7.898;2023-03-01T10:16:48;20.90;;;13.03;;
2289;SDS011;1153;47.986;7.898;2023-03-01T10:22:04;22.07;;;11.13;;
2289;SDS011;1153;47.986;7.898;2023-03-01T10:24:34;22.07;;;11.90;;
2289;SDS011;1153;47.986;7.898;2023-03-01T10:27:07;20.97;;;12.10;;
2289;SDS011;1153;47.986;7.898;2023-03-01T10:29:36;17.90;;;11.93;;
2289;SDS011;1153;47.986;7.898;2023-03-01T10:32:02;23.13;;;12.17;;
2289;SDS011;1153;47.986;7.898;2023-03-01T10:34:30;25.60;;;12.73;;
2289;SDS011;1153;47.986;7.898;2023-03-01T10:36:56;24.07;;;13.87;;
2289;SDS011;1153;47.986;7.898;2023-03-01T10:39:23;18.70;;;12.53;;
2289;SDS011;1153;47.986;7.898;2023-03-01T10:41:56;19.00;;;12.27;;
2289;SDS011;1153;47.986;7.898;2023-03-01T10:47:08;22.70;;;11.80;;
2289;SDS011;1153;47.986;7.898;2023-03-01T10:49:36;20.50;;;12.73;;
2289;SDS011;1153;47.986;7.898;2023-03-01T10:52:11;21.17;;;12.80;;
2289;SDS011;1153;47.986;7.898;2023-03-01T10:54:40;21.07;;;12.53;;
2289;SDS011;1153;47.986;7.898;2023-03-01T10:57:09;18.77;;;12.20;;
2289;SDS011;1153;47.986;7.898;2023-03-01T10:59:47;19.40;;;11.80;;
2289;SDS011;1153;47.986;7.898;2023-03-01T11:02:28;20.17;;;12.10;;
2289;SDS011;1153;47.986;7.898;2023-03-01T11:05:01;18.97;;;11.90;;
2289;SDS011;1153;47.986;7.898;2023-03-01T11:07:27;22.20;;;13.30;;
2289;SDS011;1153;47.986;7.898;2023-03-01T11:09:53;19.07;;;11.67;;
2289;SDS011;1153;47.986;7.898;2023-03-01T11:12:18;20.23;;;12.77;;
2289;SDS011;1153;47.986;7.898;2023-03-01T11:14:49;25.63;;;11.93;;
2289;SDS011;1153;47.986;7.898;2023-03-01T11:17:17;24.20;;;12.03;;
2289;SDS011;1153;47.986;7.898;2023-03-01T11:19:43;15.70;;;10.90;;
2289;SDS011;1153;47.986;7.898;2023-03-01T11:22:24;22.03;;;13.20;;
2289;SDS011;1153;47.986;7.898;2023-03-01T11:24:49;18.90;;;12.27;;
2289;SDS011;1153;47.986;7.898;2023-03-01T11:27:19;21.03;;;12.60;;
2289;SDS011;1153;47.986;7.898;2023-03-01T11:29:54;16.93;;;12.10;;
2289;SDS011;1153;47.986;7.898;2023-03-01T11:32:21;18.23;;;11.93;;
2289;SDS011;1153;47.986;7.898;2023-03-01T11:34:50;19.43;;;12.30;;
2289;SDS011;1153;47.986;7.898;2023-03-01T11:37:20;14.83;;;10.17;;
2289;SDS011;1153;47.986;7.898;2023-03-01T11:42:37;14.77;;;10.70;;
2289;SDS011;1153;47.986;7.898;2023-03-01T11:45:06;19.63;;;12.20;;
2289;SDS011;1153;47.986;7.898;2023-03-01T11:47:51;16.33;;;11.70;;
2289;SDS011;1153;47.986;7.898;2023-03-01T11:50:20;17.00;;;11.50;;
2289;SDS011;1153;47.986;7.898;2023-03-01T12:00:44;21.23;;;12.13;;
2289;SDS011;1153;47.986;7.898;2023-03-01T12:03:34;20.87;;;13.40;;
2289;SDS011;1153;47.986;7.898;2023-03-01T12:16:25;17.43;;;11.33;;
2289;SDS011;1153;47.986;7.898;2023-03-01T12:26:37;17.43;;;11.07;;
2289;SDS011;1153;47.986;7.898;2023-03-01T12:34:21;16.13;;;10.80;;
2289;SDS011;1153;47.986;7.898;2023-03-01T12:41:45;17.67;;;12.87;;
2289;SDS011;1153;47.986;7.898;2023-03-01T12:46:42;20.47;;;10.97;;
2289;SDS011;1153;47.986;7.898;2023-03-01T12:49:12;17.10;;;13.10;;
2289;SDS011;1153;47.986;7.898;2023-03-01T12:51:38;15.50;;;11.50;;
2289;SDS011;1153;47.986;7.898;2023-03-01T12:54:37;17.03;;;12.20;;
2289;SDS011;1153;47.986;7.898;2023-03-01T12:56:56;13.70;;;11.03;;
2289;SDS011;1153;47.986;7.898;2023-03-01T13:04:27;20.17;;;12.13;;
2289;SDS011;1153;47.986;7.898;2023-03-01T13:14:53;13.57;;;11.13;;
2289;SDS011;1153;47.986;7.898;2023-03-01T13:17:40;15.63;;;11.70;;
2289;SDS011;1153;47.986;7.898;2023-03-01T13:20:11;18.70;;;11.70;;
2289;SDS011;1153;47.986;7.898;2023-03-01T13:22:37;16.40;;;12.77;;
2289;SDS011;1153;47.986;7.898;2023-03-01T13:25:11;16.07;;;11.93;;
2289;SDS011;1153;47.986;7.898;2023-03-01T13:27:38;17.70;;;12.93;;
2289;SDS011;1153;47.986;7.898;2023-03-01T13:30:03;17.90;;;12.30;;
2289;SDS011;1153;47.986;7.898;2023-03-01T13:32:35;18.37;;;13.13;;
2289;SDS011;1153;47.986;7.898;2023-03-01T13:35:08;16.20;;;13.13;;
2289;SDS011;1153;47.986;7.898;2023-03-01T13:37:48;17.27;;;11.90;;
2289;SDS011;1153;47.986;7.898;2023-03-01T13:43:30;18.10;;;12.13;;
2289;SDS011;1153;47.986;7.898;2023-03-01T13:48:02;21.10;;;12.83;;
2289;SDS011;1153;47.986;7.898;2023-03-01T13:50:28;16.97;;;12.03;;
2289;SDS011;1153;47.986;7.898;2023-03-01T13:52:55;15.33;;;11.90;;
2289;SDS011;1153;47.986;7.898;2023-03-01T13:55:25;13.27;;;11.20;;
2289;SDS011;1153;47.986;7.898;2023-03-01T13:57:53;13.33;;;10.40;;
2289;SDS011;1153;47.986;7.898;2023-03-01T14:00:30;19.17;;;12.60;;
2289;SDS011;1153;47.986;7.898;2023-03-01T14:02:59;19.60;;;13.43;;
2289;SDS011;1153;47.986;7.898;2023-03-01T14:05:24;15.13;;;12.20;;
2289;SDS011;1153;47.986;7.898;2023-03-01T14:07:51;17.30;;;12.33;;
2289;SDS011;1153;47.986;7.898;2023-03-01T14:10:16;18.33;;;12.37;;
2289;SDS011;1153;47.986;7.898;2023-03-01T14:15:32;16.97;;;12.13;;
2289;SDS011;1153;47.986;7.898;2023-03-01T14:18:13;17.70;;;12.57;;
2289;SDS011;1153;47.986;7.898;2023-03-01T14:20:41;19.73;;;12.40;;
2289;SDS011;1153;47.986;7.898;2023-03-01T14:23:13;18.60;;;13.00;;
2289;SDS011;1153;47.986;7.898;2023-03-01T14:25:46;20.27;;;12.20;;
2289;SDS011;1153;47.986;7.898;2023-03-01T14:30:37;12.60;;;10.20;;
2289;SDS011;1153;47.986;7.898;2023-03-01T14:33:04;15.57;;;12.10;;
2289;SDS011;1153;47.986;7.898;2023-03-01T14:35:32;17.10;;;12.30;;
2289;SDS011;1153;47.986;7.898;2023-03-01T14:37:58;16.43;;;12.30;;
2289;SDS011;1153;47.986;7.898;2023-03-01T14:40:28;19.80;;;13.97;;
2289;SDS011;1153;47.986;7.898;2023-03-01T14:42:54;18.23;;;13.37;;
2289;SDS011;1153;47.986;7.898;2023-03-01T14:45:20;15.00;;;12.10;;
2289;SDS011;1153;47.986;7.898;2023-03-01T14:47:45;16.77;;;13.00;;
2289;SDS011;1153;47.986;7.898;2023-03-01T14:50:27;18.27;;;12.60;;
2289;SDS011;1153;47.986;7.898;2023-03-01T14:52:56;22.40;;;14.30;;
2289;SDS011;1153;47.986;7.898;2023-03-01T14:55:44;16.37;;;13.30;;
2289;SDS011;1153;47.986;7.898;2023-03-01T14:58:12;13.47;;;12.00;;
2289;SDS011;1153;47.986;7.898;2023-03-01T15:00:38;21.83;;;14.60;;
2289;SDS011;1153;47.986;7.898;2023-03-01T15:03:08;20.07;;;14.37;;
2289;SDS011;1153;47.986;7.898;2023-03-01T15:05:38;20.70;;;12.50;;
2289;SDS011;1153;47.986;7.898;2023-03-01T15:08:04;16.37;;;11.93;;
2289;SDS011;1153;47.986;7.898;2023-03-01T15:10:31;20.00;;;13.90;;
2289;SDS011;1153;47.986;7.898;2023-03-01T15:13:09;18.47;;;11.53;;
2289;SDS011;1153;47.986;7.898;2023-03-01T15:15:35;18.70;;;13.20;;
2289;SDS011;1153;47.986;7.898;2023-03-01T15:18:03;16.00;;;11.73;;
2289;SDS011;1153;47.986;7.898;2023-03-01T15:20:28;18.50;;;13.60;;
2289;SDS011;1153;47.986;7.898;2023-03-01T15:22:56;16.03;;;12.33;;
2289;SDS011;1153;47.986;7.898;2023-03-01T15:25:26;16.90;;;13.17;;
2289;SDS011;1153;47.986;7.898;2023-03-01T15:27:52;15.30;;;12.23;;
2289;SDS011;1153;47.986;7.898;2023-03-01T15:30:20;15.70;;;11.47;;
2289;SDS011;1153;47.986;7.898;2023-03-01T15:32:46;19.57;;;12.60;;
2289;SDS011;1153;47.986;7.898;2023-03-01T15:40:50;19.23;;;14.13;;
2289;SDS011;1153;47.986;7.898;2023-03-01T15:43:37;16.97;;;12.03;;
2289;SDS011;1153;47.986;7.898;2023-03-01T15:46:01;14.83;;;12.03;;
2289;SDS011;1153;47.986;7.898;2023-03-01T15:48:26;18.97;;;13.23;;
2289;SDS011;1153;47.986;7.898;2023-03-01T15:50:56;18.20;;;13.90;;
2289;SDS011;1153;47.986;7.898;2023-03-01T15:53:22;20.67;;;14.43;;
2289;SDS011;1153;47.986;7.898;2023-03-01T15:55:47;20.73;;;13.80;;
2289;SDS011;1153;47.986;7.898;2023-03-01T15:58:15;20.10;;;14.73;;
2289;SDS011;1153;47.986;7.898;2023-03-01T16:00:42;22.43;;;16.23;;
2289;SDS011;1153;47.986;7.898;2023-03-01T16:03:08;27.70;;;16.37;;
2289;SDS011;1153;47.986;7.898;2023-03-01T16:05:36;27.93;;;18.87;;
2289;SDS011;1153;47.986;7.898;2023-03-01T16:08:02;30.40;;;18.30;;
2289;SDS011;1153;47.986;7.898;2023-03-01T16:10:28;28.40;;;18.27;;
2289;SDS011;1153;47.986;7.898;2023-03-01T16:12:53;31.57;;;17.70;;
2289;SDS011;1153;47.986;7.898;2023-03-01T16:17:44;28.37;;;18.27;;
2289;SDS011;1153;47.986;7.898;2023-03-01T16:20:10;26.87;;;17.20;;
2289;SDS011;1153;47.986;7.898;2023-03-01T16:22:35;33.67;;;20.00;;
2289;SDS011;1153;47.986;7.898;2023-03-01T16:25:00;33.73;;;18.20;;